Bismarck, ND

5:16 PM CST on February 07, 2016 (GMT -0600)
Rural North Bismarck, Harvest Grove Subdivsion | | Change Station
CLOSE
Current Station
Personal Weather Station
Location: Bismarck, ND
Elevation: 1900 ft
Nearby Weather Stations

Elev 1900 ft 46.90 °N, 100.78 °W | Updated 7 seconds ago

Overcast
Overcast
32.3 °F
Feels Like 19 °F
N
25.0
Wind Variable Wind from NW
Gusts 32.0 mph

Today
High -- | Low -- °F
--% Chance of Precip.
Yesterday
High -- | Low -- °F
Precip. -- in
Pressure 30.10 in
Visibility 10.0 miles
Clouds Few 5000 ft
Windchill 19 °F
Dew Point 20 °F
Humidity 61%
Rainfall 0.00 in
Snow Depth Not available.
8:00 AM 5:54 PM
Waning Crescent, 1% visible
METAR KBIS 072252Z 33027G49KT 10SM FEW050 03/M09 A3005 RMK AO2 PK WND 33050/2234 SLP191 T00331089
Pressure 30.10 in
Visibility 10.0 miles
Clouds Few 5000 ft
Windchill 19 °F
Dew Point 20 °F
Humidity 61%
Rainfall 0.00 in
Snow Depth Not available.
8:00 AM 5:54 PM
Waning Crescent, 1% visible
METAR KBIS 072252Z 33027G49KT 10SM FEW050 03/M09 A3005 RMK AO2 PK WND 33050/2234 SLP191 T00331089

10-Day Weather Forecast

Almanac

Astronomy

Feb. 07, 2016 Rise Set
Actual Time
Civil Twilight
Nautical Twilight
Astronomical Twilight
Moon
Length of Visible Light
Length of Day
Tomorrow will be .
, % of the Moon is Illuminated

Today's Extremes

State Highs State Lows

Community

WunderPhotos

Upload Photos

1,891,325 photos uploaded!

WunderBlog® & News

Nearby

Air Quality

  Air Quality AQ Index Pollutant
Not available.

Snow Depth

Station Depth Elevation

Earthquake Activity

City Distance Mag. Time & Date
Minimum magnitude displayed is 2.5.

Coastal Water Temperatures

Place Temperature

Stations

Nearby Weather Stations

Station Location Temp. Windchill Dew Point Humidity Wind Precip. Elev Updated Type
                   

Watches & Warnings

High Wind Warning
Issued: 1:44 PM MST Feb. 7, 2016 – National Weather Service

... High Wind Warning remains in effect until 6 am CST /5 am MST/
Monday...

* timing... through tonight.

* Winds... northwest winds gusting up to 65 mph... gradually
diminishing overnight.

* Impacts... travel will be hazardous over western and central
North Dakota. Occasional light snow and blowing snow may reduce
visibilities this afternoon into early this evening.

Precautionary/preparedness actions...

A High Wind Warning means a hazardous high wind event is expected
or occurring. Sustained wind speeds of at least 40 mph or gusts
of 58 mph or more can lead to property damage.



Jjs